sensor_id;sensor_type;location;lat;lon;timestamp;P1;durP1;ratioP1;P2;durP2;ratioP2
61572;SDS011;47465;43.094;12.434;2022-08-11T00:00:31;6.93;;;5.28;;
61572;SDS011;47465;43.094;12.434;2022-08-11T00:03:02;9.05;;;5.07;;
61572;SDS011;47465;43.094;12.434;2022-08-11T00:05:30;7.80;;;4.50;;
61572;SDS011;47465;43.094;12.434;2022-08-11T00:08:08;5.78;;;4.30;;
61572;SDS011;47465;43.094;12.434;2022-08-11T00:10:36;8.93;;;5.07;;
61572;SDS011;47465;43.094;12.434;2022-08-11T00:13:04;7.05;;;5.07;;
61572;SDS011;47465;43.094;12.434;2022-08-11T00:15:37;8.93;;;5.00;;
61572;SDS011;47465;43.094;12.434;2022-08-11T00:18:06;10.02;;;5.20;;
61572;SDS011;47465;43.094;12.434;2022-08-11T00:20:34;8.57;;;5.05;;
61572;SDS011;47465;43.094;12.434;2022-08-11T00:23:05;8.00;;;5.28;;
61572;SDS011;47465;43.094;12.434;2022-08-11T00:28:04;6.40;;;4.25;;
61572;SDS011;47465;43.094;12.434;2022-08-11T00:30:47;7.03;;;4.95;;
61572;SDS011;47465;43.094;12.434;2022-08-11T00:33:15;7.00;;;4.85;;
61572;SDS011;47465;43.094;12.434;2022-08-11T00:35:42;7.75;;;5.03;;
61572;SDS011;47465;43.094;12.434;2022-08-11T00:38:09;6.95;;;5.10;;
61572;SDS011;47465;43.094;12.434;2022-08-11T00:40:40;6.70;;;5.25;;
61572;SDS011;47465;43.094;12.434;2022-08-11T00:43:14;7.72;;;4.82;;
61572;SDS011;47465;43.094;12.434;2022-08-11T00:45:49;7.80;;;4.97;;
61572;SDS011;47465;43.094;12.434;2022-08-11T00:48:40;6.30;;;4.75;;
61572;SDS011;47465;43.094;12.434;2022-08-11T00:51:19;7.18;;;4.88;;
61572;SDS011;47465;43.094;12.434;2022-08-11T00:53:59;6.03;;;4.68;;
61572;SDS011;47465;43.094;12.434;2022-08-11T01:00:08;6.63;;;4.43;;
61572;SDS011;47465;43.094;12.434;2022-08-11T01:02:57;6.18;;;4.53;;
61572;SDS011;47465;43.094;12.434;2022-08-11T01:05:50;7.45;;;4.95;;
61572;SDS011;47465;43.094;12.434;2022-08-11T01:08:32;7.10;;;4.50;;
61572;SDS011;47465;43.094;12.434;2022-08-11T01:20:32;7.55;;;4.50;;
61572;SDS011;47465;43.094;12.434;2022-08-11T01:39:06;6.88;;;5.07;;
61572;SDS011;47465;43.094;12.434;2022-08-11T01:41:59;7.55;;;5.05;;
61572;SDS011;47465;43.094;12.434;2022-08-11T01:45:24;7.90;;;4.65;;
61572;SDS011;47465;43.094;12.434;2022-08-11T01:48:01;8.88;;;4.88;;
61572;SDS011;47465;43.094;12.434;2022-08-11T01:50:45;6.53;;;4.72;;
61572;SDS011;47465;43.094;12.434;2022-08-11T01:53:25;7.53;;;5.57;;
61572;SDS011;47465;43.094;12.434;2022-08-11T01:56:03;8.18;;;5.13;;
61572;SDS011;47465;43.094;12.434;2022-08-11T01:58:41;8.88;;;4.72;;
61572;SDS011;47465;43.094;12.434;2022-08-11T02:01:26;7.90;;;5.20;;
61572;SDS011;47465;43.094;12.434;2022-08-11T02:04:05;7.57;;;4.63;;
61572;SDS011;47465;43.094;12.434;2022-08-11T02:06:43;7.68;;;4.80;;
61572;SDS011;47465;43.094;12.434;2022-08-11T02:09:28;9.40;;;5.20;;
61572;SDS011;47465;43.094;12.434;2022-08-11T02:12:11;9.20;;;5.65;;
61572;SDS011;47465;43.094;12.434;2022-08-11T02:14:45;7.75;;;4.85;;
61572;SDS011;47465;43.094;12.434;2022-08-11T02:17:37;10.45;;;5.20;;
61572;SDS011;47465;43.094;12.434;2022-08-11T02:20:14;6.50;;;4.80;;
61572;SDS011;47465;43.094;12.434;2022-08-11T02:23:22;9.38;;;4.95;;
61572;SDS011;47465;43.094;12.434;2022-08-11T02:26:27;7.40;;;4.65;;
61572;SDS011;47465;43.094;12.434;2022-08-11T02:29:02;8.25;;;5.00;;
61572;SDS011;47465;43.094;12.434;2022-08-11T02:31:44;9.65;;;5.60;;
61572;SDS011;47465;43.094;12.434;2022-08-11T02:34:54;8.02;;;5.28;;
61572;SDS011;47465;43.094;12.434;2022-08-11T02:37:26;9.38;;;4.90;;
61572;SDS011;47465;43.094;12.434;2022-08-11T02:40:07;7.68;;;5.22;;
61572;SDS011;47465;43.094;12.434;2022-08-11T02:45:16;9.05;;;4.85;;
61572;SDS011;47465;43.094;12.434;2022-08-11T02:47:57;7.65;;;5.13;;
61572;SDS011;47465;43.094;12.434;2022-08-11T02:51:05;8.15;;;4.93;;
61572;SDS011;47465;43.094;12.434;2022-08-11T02:56:10;8.27;;;4.57;;
61572;SDS011;47465;43.094;12.434;2022-08-11T02:58:54;12.00;;;5.82;;
61572;SDS011;47465;43.094;12.434;2022-08-11T03:02:25;7.60;;;5.20;;
61572;SDS011;47465;43.094;12.434;2022-08-11T03:05:02;7.93;;;5.03;;
61572;SDS011;47465;43.094;12.434;2022-08-11T03:07:40;8.45;;;4.95;;
61572;SDS011;47465;43.094;12.434;2022-08-11T03:10:22;9.40;;;5.50;;
61572;SDS011;47465;43.094;12.434;2022-08-11T03:12:57;7.40;;;5.07;;
61572;SDS011;47465;43.094;12.434;2022-08-11T03:16:12;9.48;;;4.95;;
61572;SDS011;47465;43.094;12.434;2022-08-11T03:19:20;8.50;;;5.85;;
61572;SDS011;47465;43.094;12.434;2022-08-11T03:21:52;8.82;;;5.60;;
61572;SDS011;47465;43.094;12.434;2022-08-11T03:24:28;8.20;;;5.18;;
61572;SDS011;47465;43.094;12.434;2022-08-11T03:27:02;9.55;;;4.93;;
61572;SDS011;47465;43.094;12.434;2022-08-11T03:29:33;9.80;;;5.88;;
61572;SDS011;47465;43.094;12.434;2022-08-11T03:32:06;8.93;;;5.07;;
61572;SDS011;47465;43.094;12.434;2022-08-11T03:34:38;6.95;;;5.18;;
61572;SDS011;47465;43.094;12.434;2022-08-11T03:37:10;8.55;;;5.07;;
61572;SDS011;47465;43.094;12.434;2022-08-11T03:40:28;9.10;;;5.40;;
61572;SDS011;47465;43.094;12.434;2022-08-11T03:43:50;10.10;;;5.15;;
61572;SDS011;47465;43.094;12.434;2022-08-11T03:46:28;8.20;;;4.47;;
61572;SDS011;47465;43.094;12.434;2022-08-11T03:49:14;8.70;;;5.60;;
61572;SDS011;47465;43.094;12.434;2022-08-11T03:51:51;8.18;;;5.25;;
61572;SDS011;47465;43.094;12.434;2022-08-11T03:54:24;6.88;;;5.13;;
61572;SDS011;47465;43.094;12.434;2022-08-11T04:15:03;7.68;;;5.20;;
61572;SDS011;47465;43.094;12.434;2022-08-11T04:24:23;8.55;;;5.20;;
61572;SDS011;47465;43.094;12.434;2022-08-11T04:27:06;8.07;;;4.80;;
61572;SDS011;47465;43.094;12.434;2022-08-11T04:30:02;6.78;;;4.82;;
61572;SDS011;47465;43.094;12.434;2022-08-11T04:32:39;7.47;;;5.18;;
61572;SDS011;47465;43.094;12.434;2022-08-11T04:35:27;7.85;;;4.93;;
61572;SDS011;47465;43.094;12.434;2022-08-11T04:48:05;8.25;;;5.30;;
61572;SDS011;47465;43.094;12.434;2022-08-11T04:51:29;8.60;;;4.90;;
61572;SDS011;47465;43.094;12.434;2022-08-11T04:54:52;6.55;;;4.57;;
61572;SDS011;47465;43.094;12.434;2022-08-11T04:58:05;9.10;;;4.90;;
61572;SDS011;47465;43.094;12.434;2022-08-11T05:01:26;8.50;;;5.80;;
61572;SDS011;47465;43.094;12.434;2022-08-11T05:04:28;7.47;;;4.85;;
61572;SDS011;47465;43.094;12.434;2022-08-11T05:10:59;6.85;;;4.40;;
61572;SDS011;47465;43.094;12.434;2022-08-11T05:13:41;8.77;;;4.65;;
61572;SDS011;47465;43.094;12.434;2022-08-11T05:16:46;7.65;;;4.45;;
61572;SDS011;47465;43.094;12.434;2022-08-11T05:19:49;8.15;;;4.72;;
61572;SDS011;47465;43.094;12.434;2022-08-11T05:22:35;6.72;;;4.60;;
61572;SDS011;47465;43.094;12.434;2022-08-11T05:25:43;5.32;;;4.20;;
61572;SDS011;47465;43.094;12.434;2022-08-11T05:28:48;6.30;;;4.28;;
61572;SDS011;47465;43.094;12.434;2022-08-11T05:32:09;8.27;;;4.10;;
61572;SDS011;47465;43.094;12.434;2022-08-11T05:35:12;6.72;;;4.18;;
61572;SDS011;47465;43.094;12.434;2022-08-11T05:37:41;12.48;;;4.32;;
61572;SDS011;47465;43.094;12.434;2022-08-11T05:40:49;8.05;;;4.10;;
61572;SDS011;47465;43.094;12.434;2022-08-11T05:43:52;6.43;;;3.85;;
61572;SDS011;47465;43.094;12.434;2022-08-11T05:46:57;6.80;;;4.25;;
61572;SDS011;47465;43.094;12.434;2022-08-11T05:49:59;8.65;;;4.50;;
61572;SDS011;47465;43.094;12.434;2022-08-11T05:53:02;6.80;;;4.03;;
61572;SDS011;47465;43.094;12.434;2022-08-11T05:56:04;6.88;;;4.10;;
61572;SDS011;47465;43.094;12.434;2022-08-11T05:59:24;6.43;;;4.30;;
61572;SDS011;47465;43.094;12.434;2022-08-11T06:01:52;6.50;;;4.15;;
61572;SDS011;47465;43.094;12.434;2022-08-11T06:04:25;8.27;;;4.47;;
61572;SDS011;47465;43.094;12.434;2022-08-11T06:06:53;6.25;;;4.05;;
61572;SDS011;47465;43.094;12.434;2022-08-11T06:09:22;6.10;;;4.22;;
61572;SDS011;47465;43.094;12.434;2022-08-11T06:11:51;7.78;;;3.95;;
61572;SDS011;47465;43.094;12.434;2022-08-11T06:14:19;6.78;;;4.10;;
61572;SDS011;47465;43.094;12.434;2022-08-11T06:19:19;8.35;;;4.20;;
61572;SDS011;47465;43.094;12.434;2022-08-11T06:21:47;6.15;;;4.05;;
61572;SDS011;47465;43.094;12.434;2022-08-11T06:24:17;4.65;;;3.80;;
61572;SDS011;47465;43.094;12.434;2022-08-11T06:26:47;6.00;;;3.65;;
61572;SDS011;47465;43.094;12.434;2022-08-11T06:29:15;8.88;;;4.18;;
61572;SDS011;47465;43.094;12.434;2022-08-11T06:31:43;7.40;;;4.05;;
61572;SDS011;47465;43.094;12.434;2022-08-11T06:34:25;8.82;;;4.22;;
61572;SDS011;47465;43.094;12.434;2022-08-11T06:37:03;6.03;;;3.85;;
61572;SDS011;47465;43.094;12.434;2022-08-11T06:39:44;6.75;;;3.70;;
61572;SDS011;47465;43.094;12.434;2022-08-11T06:42:20;5.57;;;3.83;;
61572;SDS011;47465;43.094;12.434;2022-08-11T06:45:00;5.95;;;3.80;;
61572;SDS011;47465;43.094;12.434;2022-08-11T06:47:33;5.47;;;3.55;;
61572;SDS011;47465;43.094;12.434;2022-08-11T06:49:59;6.55;;;3.80;;
61572;SDS011;47465;43.094;12.434;2022-08-11T06:53:00;5.95;;;3.60;;
61572;SDS011;47465;43.094;12.434;2022-08-11T06:55:29;5.78;;;3.40;;
61572;SDS011;47465;43.094;12.434;2022-08-11T06:58:34;7.75;;;3.75;;
61572;SDS011;47465;43.094;12.434;2022-08-11T07:01:50;6.40;;;3.45;;
61572;SDS011;47465;43.094;12.434;2022-08-11T07:04:31;8.15;;;3.63;;
61572;SDS011;47465;43.094;12.434;2022-08-11T07:07:17;5.80;;;3.60;;
61572;SDS011;47465;43.094;12.434;2022-08-11T07:10:44;6.30;;;3.53;;
61572;SDS011;47465;43.094;12.434;2022-08-11T07:13:54;6.55;;;4.00;;
61572;SDS011;47465;43.094;12.434;2022-08-11T07:16:58;4.50;;;3.40;;
61572;SDS011;47465;43.094;12.434;2022-08-11T07:19:26;6.18;;;3.55;;
61572;SDS011;47465;43.094;12.434;2022-08-11T07:22:30;5.45;;;3.50;;
61572;SDS011;47465;43.094;12.434;2022-08-11T07:25:50;5.10;;;3.38;;
61572;SDS011;47465;43.094;12.434;2022-08-11T07:28:51;5.45;;;3.70;;
61572;SDS011;47465;43.094;12.434;2022-08-11T07:31:23;6.57;;;3.85;;
61572;SDS011;47465;43.094;12.434;2022-08-11T07:33:56;5.28;;;3.60;;
61572;SDS011;47465;43.094;12.434;2022-08-11T07:36:29;5.28;;;3.83;;
61572;SDS011;47465;43.094;12.434;2022-08-11T07:38:59;6.90;;;3.45;;
61572;SDS011;47465;43.094;12.434;2022-08-11T07:41:25;4.63;;;3.22;;
61572;SDS011;47465;43.094;12.434;2022-08-11T07:43:58;5.53;;;3.40;;
61572;SDS011;47465;43.094;12.434;2022-08-11T07:46:33;8.45;;;3.60;;
61572;SDS011;47465;43.094;12.434;2022-08-11T07:49:33;5.68;;;3.30;;
61572;SDS011;47465;43.094;12.434;2022-08-11T07:52:36;7.75;;;3.60;;
61572;SDS011;47465;43.094;12.434;2022-08-11T07:55:05;8.15;;;3.50;;
61572;SDS011;47465;43.094;12.434;2022-08-11T07:57:36;6.03;;;3.55;;
61572;SDS011;47465;43.094;12.434;2022-08-11T08:00:37;6.03;;;3.55;;
61572;SDS011;47465;43.094;12.434;2022-08-11T08:03:42;8.52;;;3.58;;
61572;SDS011;47465;43.094;12.434;2022-08-11T08:06:47;6.78;;;3.53;;
61572;SDS011;47465;43.094;12.434;2022-08-11T08:09:48;6.15;;;3.20;;
61572;SDS011;47465;43.094;12.434;2022-08-11T08:13:33;5.72;;;3.40;;
61572;SDS011;47465;43.094;12.434;2022-08-11T08:16:35;5.72;;;3.30;;
61572;SDS011;47465;43.094;12.434;2022-08-11T08:19:36;6.22;;;3.50;;
61572;SDS011;47465;43.094;12.434;2022-08-11T08:22:02;5.35;;;3.47;;
61572;SDS011;47465;43.094;12.434;2022-08-11T08:24:29;5.50;;;3.50;;
61572;SDS011;47465;43.094;12.434;2022-08-11T08:26:58;6.47;;;3.55;;
61572;SDS011;47465;43.094;12.434;2022-08-11T08:29:24;6.45;;;3.05;;
61572;SDS011;47465;43.094;12.434;2022-08-11T08:32:21;6.07;;;3.10;;
61572;SDS011;47465;43.094;12.434;2022-08-11T08:34:48;6.28;;;3.47;;
61572;SDS011;47465;43.094;12.434;2022-08-11T08:37:17;5.05;;;3.20;;
61572;SDS011;47465;43.094;12.434;2022-08-11T08:39:44;5.75;;;3.15;;
61572;SDS011;47465;43.094;12.434;2022-08-11T08:42:11;5.05;;;3.13;;
61572;SDS011;47465;43.094;12.434;2022-08-11T08:44:42;4.38;;;3.22;;
61572;SDS011;47465;43.094;12.434;2022-08-11T08:47:12;5.68;;;3.50;;
61572;SDS011;47465;43.094;12.434;2022-08-11T08:49:43;4.68;;;3.15;;
61572;SDS011;47465;43.094;12.434;2022-08-11T08:52:13;4.90;;;3.08;;
61572;SDS011;47465;43.094;12.434;2022-08-11T08:54:43;6.07;;;3.38;;
61572;SDS011;47465;43.094;12.434;2022-08-11T08:57:12;7.00;;;3.35;;
61572;SDS011;47465;43.094;12.434;2022-08-11T08:59:43;5.32;;;3.13;;
61572;SDS011;47465;43.094;12.434;2022-08-11T09:02:12;5.45;;;3.20;;
61572;SDS011;47465;43.094;12.434;2022-08-11T09:04:38;5.90;;;3.60;;
61572;SDS011;47465;43.094;12.434;2022-08-11T09:07:10;7.28;;;3.17;;
61572;SDS011;47465;43.094;12.434;2022-08-11T09:09:38;6.70;;;3.45;;
61572;SDS011;47465;43.094;12.434;2022-08-11T09:12:07;5.15;;;3.45;;
61572;SDS011;47465;43.094;12.434;2022-08-11T09:17:37;6.03;;;3.15;;
61572;SDS011;47465;43.094;12.434;2022-08-11T09:20:06;5.65;;;3.25;;
61572;SDS011;47465;43.094;12.434;2022-08-11T09:22:36;8.75;;;3.50;;
61572;SDS011;47465;43.094;12.434;2022-08-11T09:25:35;5.43;;;3.00;;
61572;SDS011;47465;43.094;12.434;2022-08-11T09:28:34;5.15;;;3.50;;
61572;SDS011;47465;43.094;12.434;2022-08-11T09:31:01;5.55;;;3.25;;
61572;SDS011;47465;43.094;12.434;2022-08-11T09:33:28;5.03;;;3.20;;
61572;SDS011;47465;43.094;12.434;2022-08-11T09:35:56;5.75;;;3.25;;
61572;SDS011;47465;43.094;12.434;2022-08-11T09:38:44;5.43;;;3.13;;
61572;SDS011;47465;43.094;12.434;2022-08-11T09:41:46;6.10;;;3.22;;
61572;SDS011;47465;43.094;12.434;2022-08-11T09:44:13;6.65;;;3.33;;
61572;SDS011;47465;43.094;12.434;2022-08-11T09:47:12;6.75;;;3.60;;
61572;SDS011;47465;43.094;12.434;2022-08-11T09:49:43;6.50;;;3.03;;
61572;SDS011;47465;43.094;12.434;2022-08-11T09:52:10;4.75;;;3.33;;
61572;SDS011;47465;43.094;12.434;2022-08-11T09:54:38;5.43;;;3.03;;
61572;SDS011;47465;43.094;12.434;2022-08-11T09:57:05;6.18;;;3.03;;
61572;SDS011;47465;43.094;12.434;2022-08-11T10:00:07;5.05;;;3.17;;
61572;SDS011;47465;43.094;12.434;2022-08-11T10:02:37;4.85;;;3.08;;
61572;SDS011;47465;43.094;12.434;2022-08-11T10:05:07;4.78;;;3.05;;
61572;SDS011;47465;43.094;12.434;2022-08-11T10:08:11;5.78;;;3.17;;
61572;SDS011;47465;43.094;12.434;2022-08-11T10:10:42;5.85;;;3.58;;
61572;SDS011;47465;43.094;12.434;2022-08-11T10:13:12;4.43;;;3.17;;
61572;SDS011;47465;43.094;12.434;2022-08-11T10:15:42;5.53;;;3.00;;
61572;SDS011;47465;43.094;12.434;2022-08-11T10:18:13;5.32;;;3.33;;
61572;SDS011;47465;43.094;12.434;2022-08-11T10:21:16;6.32;;;3.30;;
61572;SDS011;47465;43.094;12.434;2022-08-11T10:23:49;5.18;;;3.40;;
61572;SDS011;47465;43.094;12.434;2022-08-11T10:26:52;5.30;;;3.20;;
61572;SDS011;47465;43.094;12.434;2022-08-11T10:29:21;5.72;;;3.10;;
61572;SDS011;47465;43.094;12.434;2022-08-11T10:32:23;7.07;;;3.50;;
61572;SDS011;47465;43.094;12.434;2022-08-11T10:35:32;4.70;;;3.17;;
61572;SDS011;47465;43.094;12.434;2022-08-11T10:40:25;5.03;;;2.95;;
61572;SDS011;47465;43.094;12.434;2022-08-11T10:42:52;4.35;;;3.38;;
61572;SDS011;47465;43.094;12.434;2022-08-11T10:45:32;5.72;;;3.15;;
61572;SDS011;47465;43.094;12.434;2022-08-11T10:48:35;4.82;;;3.40;;
61572;SDS011;47465;43.094;12.434;2022-08-11T10:51:03;5.28;;;3.08;;
61572;SDS011;47465;43.094;12.434;2022-08-11T10:53:40;4.72;;;3.25;;
61572;SDS011;47465;43.094;12.434;2022-08-11T10:56:41;5.35;;;2.92;;
61572;SDS011;47465;43.094;12.434;2022-08-11T10:59:41;3.85;;;3.10;;
61572;SDS011;47465;43.094;12.434;2022-08-11T11:02:10;4.43;;;3.10;;
61572;SDS011;47465;43.094;12.434;2022-08-11T11:04:42;7.35;;;3.20;;
61572;SDS011;47465;43.094;12.434;2022-08-11T11:07:23;4.85;;;3.13;;
61572;SDS011;47465;43.094;12.434;2022-08-11T11:09:56;4.57;;;3.00;;
61572;SDS011;47465;43.094;12.434;2022-08-11T11:12:23;4.45;;;3.10;;
61572;SDS011;47465;43.094;12.434;2022-08-11T11:15:27;6.60;;;3.03;;
61572;SDS011;47465;43.094;12.434;2022-08-11T11:18:28;7.13;;;3.35;;
61572;SDS011;47465;43.094;12.434;2022-08-11T11:21:02;6.15;;;3.40;;
61572;SDS011;47465;43.094;12.434;2022-08-11T11:23:31;7.03;;;3.53;;
61572;SDS011;47465;43.094;12.434;2022-08-11T11:29:02;4.88;;;3.10;;
61572;SDS011;47465;43.094;12.434;2022-08-11T11:31:41;6.93;;;3.20;;
61572;SDS011;47465;43.094;12.434;2022-08-11T11:34:20;5.47;;;3.08;;
61572;SDS011;47465;43.094;12.434;2022-08-11T11:36:59;5.35;;;3.05;;
61572;SDS011;47465;43.094;12.434;2022-08-11T11:39:26;3.90;;;3.20;;
61572;SDS011;47465;43.094;12.434;2022-08-11T11:41:56;6.95;;;3.40;;
61572;SDS011;47465;43.094;12.434;2022-08-11T11:44:25;4.68;;;3.00;;
61572;SDS011;47465;43.094;12.434;2022-08-11T11:46:51;5.72;;;3.00;;
61572;SDS011;47465;43.094;12.434;2022-08-11T11:49:22;4.78;;;2.92;;
61572;SDS011;47465;43.094;12.434;2022-08-11T11:51:49;6.22;;;3.08;;
61572;SDS011;47465;43.094;12.434;2022-08-11T11:54:17;6.70;;;3.00;;
61572;SDS011;47465;43.094;12.434;2022-08-11T11:56:45;4.03;;;2.90;;
61572;SDS011;47465;43.094;12.434;2022-08-11T11:59:11;4.13;;;3.22;;
61572;SDS011;47465;43.094;12.434;2022-08-11T12:02:13;4.10;;;2.90;;
61572;SDS011;47465;43.094;12.434;2022-08-11T12:04:40;4.38;;;3.15;;
61572;SDS011;47465;43.094;12.434;2022-08-11T12:07:09;4.22;;;3.30;;
61572;SDS011;47465;43.094;12.434;2022-08-11T12:10:09;6.82;;;3.00;;
61572;SDS011;47465;43.094;12.434;2022-08-11T12:12:36;5.88;;;3.00;;
61572;SDS011;47465;43.094;12.434;2022-08-11T12:15:35;5.05;;;3.20;;
61572;SDS011;47465;43.094;12.434;2022-08-11T12:18:02;5.20;;;3.13;;
61572;SDS011;47465;43.094;12.434;2022-08-11T12:20:29;5.07;;;3.28;;
61572;SDS011;47465;43.094;12.434;2022-08-11T12:22:55;5.93;;;3.47;;
61572;SDS011;47465;43.094;12.434;2022-08-11T12:25:56;5.60;;;3.55;;
61572;SDS011;47465;43.094;12.434;2022-08-11T12:28:57;4.85;;;3.03;;
61572;SDS011;47465;43.094;12.434;2022-08-11T12:31:25;5.60;;;3.65;;
61572;SDS011;47465;43.094;12.434;2022-08-11T12:33:58;4.72;;;3.30;;
61572;SDS011;47465;43.094;12.434;2022-08-11T12:36:25;4.72;;;3.05;;
61572;SDS011;47465;43.094;12.434;2022-08-11T12:38:51;6.97;;;3.25;;
61572;SDS011;47465;43.094;12.434;2022-08-11T12:41:19;5.07;;;3.33;;
61572;SDS011;47465;43.094;12.434;2022-08-11T12:44:14;4.63;;;3.40;;
61572;SDS011;47465;43.094;12.434;2022-08-11T12:47:15;6.07;;;3.20;;
61572;SDS011;47465;43.094;12.434;2022-08-11T12:49:44;4.55;;;3.33;;
61572;SDS011;47465;43.094;12.434;2022-08-11T12:52:48;6.15;;;2.90;;
61572;SDS011;47465;43.094;12.434;2022-08-11T12:55:19;6.07;;;3.15;;
61572;SDS011;47465;43.094;12.434;2022-08-11T12:58:16;4.43;;;3.10;;
61572;SDS011;47465;43.094;12.434;2022-08-11T13:00:43;4.60;;;3.10;;
61572;SDS011;47465;43.094;12.434;2022-08-11T13:03:44;5.20;;;3.20;;
61572;SDS011;47465;43.094;12.434;2022-08-11T13:06:44;6.43;;;3.25;;
61572;SDS011;47465;43.094;12.434;2022-08-11T13:09:11;6.10;;;3.28;;
61572;SDS011;47465;43.094;12.434;2022-08-11T13:11:37;5.30;;;3.17;;
61572;SDS011;47465;43.094;12.434;2022-08-11T13:14:38;5.05;;;3.00;;
61572;SDS011;47465;43.094;12.434;2022-08-11T13:17:04;4.97;;;3.10;;
61572;SDS011;47465;43.094;12.434;2022-08-11T13:20:05;4.18;;;3.10;;
61572;SDS011;47465;43.094;12.434;2022-08-11T13:22:34;4.40;;;3.25;;
61572;SDS011;47465;43.094;12.434;2022-08-11T13:25:02;7.72;;;3.97;;
61572;SDS011;47465;43.094;12.434;2022-08-11T13:27:29;4.07;;;3.30;;
61572;SDS011;47465;43.094;12.434;2022-08-11T13:29:55;7.70;;;3.63;;
61572;SDS011;47465;43.094;12.434;2022-08-11T13:32:57;4.75;;;3.03;;
61572;SDS011;47465;43.094;12.434;2022-08-11T13:35:24;5.35;;;3.08;;
61572;SDS011;47465;43.094;12.434;2022-08-11T13:37:52;6.13;;;3.40;;
61572;SDS011;47465;43.094;12.434;2022-08-11T13:42:47;5.25;;;3.22;;
61572;SDS011;47465;43.094;12.434;2022-08-11T13:45:14;3.85;;;3.28;;
61572;SDS011;47465;43.094;12.434;2022-08-11T13:47:41;4.43;;;3.17;;
61572;SDS011;47465;43.094;12.434;2022-08-11T13:50:09;4.00;;;3.10;;
61572;SDS011;47465;43.094;12.434;2022-08-11T13:52:38;5.10;;;3.20;;
61572;SDS011;47465;43.094;12.434;2022-08-11T13:55:05;6.20;;;3.28;;
61572;SDS011;47465;43.094;12.434;2022-08-11T13:57:33;3.65;;;2.90;;
61572;SDS011;47465;43.094;12.434;2022-08-11T14:00:00;4.60;;;3.17;;
61572;SDS011;47465;43.094;12.434;2022-08-11T14:02:36;6.13;;;3.05;;
61572;SDS011;47465;43.094;12.434;2022-08-11T14:05:07;5.68;;;3.22;;
61572;SDS011;47465;43.094;12.434;2022-08-11T14:07:38;4.40;;;3.20;;
61572;SDS011;47465;43.094;12.434;2022-08-11T14:10:07;4.70;;;3.05;;
61572;SDS011;47465;43.094;12.434;2022-08-11T14:12:36;5.68;;;3.10;;
61572;SDS011;47465;43.094;12.434;2022-08-11T14:15:41;4.53;;;2.92;;
61572;SDS011;47465;43.094;12.434;2022-08-11T14:18:12;5.47;;;3.05;;
61572;SDS011;47465;43.094;12.434;2022-08-11T14:20:43;4.53;;;3.10;;
61572;SDS011;47465;43.094;12.434;2022-08-11T14:23:47;3.92;;;2.92;;
61572;SDS011;47465;43.094;12.434;2022-08-11T14:26:15;3.88;;;3.00;;
61572;SDS011;47465;43.094;12.434;2022-08-11T14:29:18;5.10;;;3.00;;
61572;SDS011;47465;43.094;12.434;2022-08-11T14:31:46;4.32;;;3.03;;
61572;SDS011;47465;43.094;12.434;2022-08-11T14:34:14;4.60;;;3.00;;
61572;SDS011;47465;43.094;12.434;2022-08-11T14:36:46;4.38;;;2.83;;
61572;SDS011;47465;43.094;12.434;2022-08-11T14:39:17;5.00;;;3.72;;
61572;SDS011;47465;43.094;12.434;2022-08-11T14:41:47;4.80;;;3.13;;
61572;SDS011;47465;43.094;12.434;2022-08-11T14:44:36;3.92;;;3.10;;
61572;SDS011;47465;43.094;12.434;2022-08-11T14:47:39;8.00;;;3.50;;
61572;SDS011;47465;43.094;12.434;2022-08-11T14:50:10;4.85;;;2.92;;
61572;SDS011;47465;43.094;12.434;2022-08-11T14:52:43;5.68;;;3.10;;
61572;SDS011;47465;43.094;12.434;2022-08-11T14:55:14;6.50;;;3.00;;
61572;SDS011;47465;43.094;12.434;2022-08-11T14:58:17;5.43;;;3.00;;
61572;SDS011;47465;43.094;12.434;2022-08-11T15:00:44;5.15;;;3.08;;
61572;SDS011;47465;43.094;12.434;2022-08-11T15:03:11;3.95;;;2.88;;
61572;SDS011;47465;43.094;12.434;2022-08-11T15:05:40;4.07;;;3.10;;
61572;SDS011;47465;43.094;12.434;2022-08-11T15:08:12;5.05;;;3.10;;
61572;SDS011;47465;43.094;12.434;2022-08-11T15:10:39;5.93;;;3.20;;
61572;SDS011;47465;43.094;12.434;2022-08-11T15:13:06;5.40;;;3.03;;
61572;SDS011;47465;43.094;12.434;2022-08-11T15:15:35;4.65;;;2.90;;
61572;SDS011;47465;43.094;12.434;2022-08-11T15:18:36;5.30;;;3.05;;
61572;SDS011;47465;43.094;12.434;2022-08-11T15:21:03;4.13;;;3.15;;
61572;SDS011;47465;43.094;12.434;2022-08-11T15:24:04;4.93;;;3.40;;
61572;SDS011;47465;43.094;12.434;2022-08-11T15:27:05;4.15;;;3.10;;
61572;SDS011;47465;43.094;12.434;2022-08-11T15:30:12;6.07;;;3.28;;
61572;SDS011;47465;43.094;12.434;2022-08-11T15:33:27;4.85;;;3.20;;
61572;SDS011;47465;43.094;12.434;2022-08-11T15:36:24;4.25;;;3.20;;
61572;SDS011;47465;43.094;12.434;2022-08-11T15:39:30;5.35;;;3.00;;
61572;SDS011;47465;43.094;12.434;2022-08-11T15:42:00;4.72;;;3.03;;
61572;SDS011;47465;43.094;12.434;2022-08-11T15:45:07;4.82;;;3.15;;
61572;SDS011;47465;43.094;12.434;2022-08-11T15:48:09;4.18;;;3.08;;
61572;SDS011;47465;43.094;12.434;2022-08-11T15:50:40;4.63;;;2.95;;
61572;SDS011;47465;43.094;12.434;2022-08-11T15:53:11;5.03;;;3.30;;
61572;SDS011;47465;43.094;12.434;2022-08-11T15:55:42;8.05;;;3.50;;
61572;SDS011;47465;43.094;12.434;2022-08-11T15:58:10;3.70;;;2.80;;
61572;SDS011;47465;43.094;12.434;2022-08-11T16:01:11;5.57;;;3.03;;
61572;SDS011;47465;43.094;12.434;2022-08-11T16:04:15;5.43;;;3.38;;
61572;SDS011;47465;43.094;12.434;2022-08-11T16:06:44;4.95;;;3.10;;
61572;SDS011;47465;43.094;12.434;2022-08-11T16:09:19;4.70;;;3.15;;
61572;SDS011;47465;43.094;12.434;2022-08-11T16:11:49;4.15;;;2.97;;
61572;SDS011;47465;43.094;12.434;2022-08-11T16:14:16;5.53;;;3.17;;
61572;SDS011;47465;43.094;12.434;2022-08-11T16:17:20;5.45;;;3.20;;
61572;SDS011;47465;43.094;12.434;2022-08-11T16:19:48;4.43;;;2.97;;
61572;SDS011;47465;43.094;12.434;2022-08-11T16:22:19;4.15;;;3.15;;
61572;SDS011;47465;43.094;12.434;2022-08-11T16:24:58;4.53;;;3.00;;
61572;SDS011;47465;43.094;12.434;2022-08-11T16:27:25;6.95;;;3.20;;
61572;SDS011;47465;43.094;12.434;2022-08-11T16:29:52;5.30;;;3.13;;
61572;SDS011;47465;43.094;12.434;2022-08-11T16:32:22;5.47;;;2.92;;
61572;SDS011;47465;43.094;12.434;2022-08-11T16:34:51;3.88;;;2.80;;
61572;SDS011;47465;43.094;12.434;2022-08-11T16:37:53;5.82;;;3.22;;
61572;SDS011;47465;43.094;12.434;2022-08-11T16:40:55;4.57;;;3.00;;
61572;SDS011;47465;43.094;12.434;2022-08-11T16:43:23;4.25;;;2.78;;
61572;SDS011;47465;43.094;12.434;2022-08-11T16:46:44;5.32;;;3.40;;
61572;SDS011;47465;43.094;12.434;2022-08-11T16:49:46;5.65;;;2.97;;
61572;SDS011;47465;43.094;12.434;2022-08-11T16:52:16;4.68;;;3.30;;
61572;SDS011;47465;43.094;12.434;2022-08-11T16:54:42;4.25;;;2.72;;
61572;SDS011;47465;43.094;12.434;2022-08-11T16:57:12;5.20;;;2.88;;
61572;SDS011;47465;43.094;12.434;2022-08-11T17:00:15;6.78;;;3.30;;
61572;SDS011;47465;43.094;12.434;2022-08-11T17:02:46;5.38;;;3.10;;
61572;SDS011;47465;43.094;12.434;2022-08-11T17:05:49;6.93;;;3.40;;
61572;SDS011;47465;43.094;12.434;2022-08-11T17:08:51;4.65;;;3.13;;
61572;SDS011;47465;43.094;12.434;2022-08-11T17:11:51;5.97;;;3.00;;
61572;SDS011;47465;43.094;12.434;2022-08-11T17:14:57;5.93;;;3.20;;
61572;SDS011;47465;43.094;12.434;2022-08-11T17:17:29;7.38;;;3.25;;
61572;SDS011;47465;43.094;12.434;2022-08-11T17:20:00;4.70;;;2.72;;
61572;SDS011;47465;43.094;12.434;2022-08-11T17:22:31;7.72;;;3.10;;
61572;SDS011;47465;43.094;12.434;2022-08-11T17:25:35;3.90;;;3.00;;
61572;SDS011;47465;43.094;12.434;2022-08-11T17:28:01;4.90;;;3.47;;